createdAt,value
2023-11-21T00:02:19.978Z,4.05
2023-11-21T00:04:46.868Z,6.07
2023-11-21T00:07:13.788Z,4.80
2023-11-21T00:09:40.595Z,4.25
2023-11-21T00:12:11.276Z,7.38
2023-11-21T00:14:39.477Z,5.65
2023-11-21T00:17:07.078Z,4.97
2023-11-21T00:19:34.703Z,5.72
2023-11-21T00:22:01.457Z,5.07
2023-11-21T00:24:28.211Z,4.03
2023-11-21T00:26:55.118Z,5.80
2023-11-21T00:29:21.830Z,3.85
2023-11-21T00:31:48.762Z,3.35
2023-11-21T00:34:15.513Z,4.35
2023-11-21T00:36:42.278Z,3.55
2023-11-21T00:39:09.872Z,4.00
2023-11-21T00:41:37.823Z,4.40
2023-11-21T00:44:05.122Z,2.85
2023-11-21T00:46:32.679Z,4.80
2023-11-21T00:48:59.418Z,2.35
2023-11-21T00:51:26.340Z,3.22
2023-11-21T00:53:53.079Z,2.20
2023-11-21T00:56:19.875Z,1.88
2023-11-21T00:58:47.901Z,1.83
2023-11-21T01:01:14.681Z,1.48
2023-11-21T01:03:41.480Z,1.38
2023-11-21T01:06:08.715Z,3.92
2023-11-21T01:08:35.671Z,5.22
2023-11-21T01:11:02.621Z,4.18
2023-11-21T01:13:29.515Z,1.27
2023-11-21T01:15:56.862Z,2.83
2023-11-21T01:18:23.667Z,0.50
2023-11-21T01:20:50.366Z,0.90
2023-11-21T01:23:17.240Z,1.20
2023-11-21T01:25:44.120Z,1.63
2023-11-21T01:28:10.919Z,1.05
2023-11-21T01:30:37.692Z,1.00
2023-11-21T01:33:04.462Z,0.95
2023-11-21T01:35:31.605Z,0.73
2023-11-21T01:37:58.347Z,0.35
2023-11-21T01:40:25.687Z,0.57
2023-11-21T01:42:54.357Z,1.00
2023-11-21T01:45:21.226Z,0.55
2023-11-21T01:47:48.090Z,0.68
2023-11-21T01:50:17.361Z,1.00
2023-11-21T01:52:45.379Z,0.55
2023-11-21T01:55:15.431Z,0.70
2023-11-21T01:57:47.261Z,0.40
2023-11-21T02:00:17.281Z,0.65
2023-11-21T02:02:45.176Z,1.10
2023-11-21T02:05:13.784Z,0.55
2023-11-21T02:07:41.233Z,1.02
2023-11-21T02:10:08.967Z,0.50
2023-11-21T02:12:40.136Z,0.60
2023-11-21T02:15:10.875Z,1.08
2023-11-21T02:17:37.720Z,0.40
2023-11-21T02:20:07.921Z,0.80
2023-11-21T02:22:35.252Z,3.67
2023-11-21T02:25:02.122Z,0.77
2023-11-21T02:27:29.103Z,2.58
2023-11-21T02:29:55.832Z,1.50
2023-11-21T02:32:24.074Z,0.65
2023-11-21T02:34:51.192Z,1.05
2023-11-21T02:37:17.994Z,1.65
2023-11-21T02:39:44.876Z,0.77
2023-11-21T02:42:11.597Z,0.88
2023-11-21T02:44:38.305Z,0.60
2023-11-21T02:47:05.474Z,0.52
2023-11-21T02:49:33.075Z,1.05
2023-11-21T02:51:59.854Z,0.40
2023-11-21T02:54:28.417Z,0.55
2023-11-21T02:56:55.190Z,1.52
2023-11-21T02:59:21.937Z,0.40
2023-11-21T03:01:48.765Z,0.80
2023-11-21T03:04:19.160Z,0.70
2023-11-21T03:06:46.600Z,0.88
2023-11-21T03:09:13.524Z,3.67
2023-11-21T03:11:40.202Z,3.35
2023-11-21T03:14:06.870Z,3.97
2023-11-21T03:16:33.959Z,1.30
2023-11-21T03:19:00.775Z,0.55
2023-11-21T03:21:27.560Z,0.50
2023-11-21T03:23:54.448Z,4.88
2023-11-21T03:26:21.207Z,1.77
2023-11-21T03:28:47.947Z,1.13
2023-11-21T03:31:14.738Z,0.50
2023-11-21T03:33:41.528Z,1.90
2023-11-21T03:36:09.212Z,2.33
2023-11-21T03:38:37.108Z,3.05
2023-11-21T03:41:03.969Z,2.53
2023-11-21T03:43:30.839Z,2.03
2023-11-21T03:45:57.768Z,2.85
2023-11-21T03:48:24.564Z,2.92
2023-11-21T03:50:51.297Z,1.63
2023-11-21T03:53:18.053Z,1.90
2023-11-21T03:55:44.805Z,8.15
2023-11-21T03:58:11.528Z,3.28
2023-11-21T04:00:38.250Z,6.13
2023-11-21T04:03:06.234Z,1.90
2023-11-21T04:05:33.022Z,2.20
2023-11-21T04:07:59.729Z,2.90
2023-11-21T04:10:26.549Z,4.18
2023-11-21T04:12:53.331Z,6.90
2023-11-21T04:15:20.115Z,5.85
2023-11-21T04:17:46.881Z,12.90
2023-11-21T04:20:13.683Z,6.75
2023-11-21T04:22:47.724Z,5.20
2023-11-21T04:25:15.555Z,2.72
2023-11-21T04:27:44.895Z,2.25
2023-11-21T04:30:14.886Z,3.22
2023-11-21T04:32:41.770Z,6.03
2023-11-21T04:35:10.089Z,25.02
2023-11-21T04:37:37.143Z,7.07
2023-11-21T04:40:08.029Z,4.05
2023-11-21T04:42:38.227Z,5.22
2023-11-21T04:45:09.842Z,4.07
2023-11-21T04:47:37.258Z,7.30
2023-11-21T04:50:04.957Z,8.73
2023-11-21T04:52:31.664Z,7.38
2023-11-21T04:54:59.810Z,4.60
2023-11-21T04:57:26.595Z,6.90
2023-11-21T04:59:53.318Z,4.78
2023-11-21T05:02:31.040Z,8.52
2023-11-21T05:05:03.507Z,7.78
2023-11-21T05:07:32.369Z,7.57
2023-11-21T05:09:59.615Z,4.65
2023-11-21T05:12:26.385Z,4.68
2023-11-21T05:14:53.182Z,5.40
2023-11-21T05:17:20.101Z,6.35
2023-11-21T05:19:50.002Z,6.20
2023-11-21T05:22:17.038Z,15.45
2023-11-21T05:24:43.769Z,8.98
2023-11-21T05:27:10.919Z,10.93
2023-11-21T05:29:39.039Z,11.20
2023-11-21T05:32:06.251Z,14.93
2023-11-21T05:34:33.309Z,11.27
2023-11-21T05:37:00.093Z,6.43
2023-11-21T05:39:26.835Z,5.72
2023-11-21T05:41:53.577Z,11.10
2023-11-21T05:44:20.459Z,7.18
2023-11-21T05:46:47.416Z,11.18
2023-11-21T05:49:14.254Z,23.88
2023-11-21T05:51:41.115Z,18.02
2023-11-21T05:54:07.827Z,17.42
2023-11-21T05:56:34.670Z,23.17
2023-11-21T05:59:01.832Z,40.67
2023-11-21T06:01:31.605Z,62.85
2023-11-21T06:03:58.901Z,30.45
2023-11-21T06:06:26.139Z,26.20
2023-11-21T06:08:53.162Z,52.20
2023-11-21T06:11:19.926Z,47.42
2023-11-21T06:13:46.753Z,13.30
2023-11-21T06:16:17.400Z,45.90
2023-11-21T06:18:45.033Z,45.03
2023-11-21T06:21:11.930Z,52.15
2023-11-21T06:23:38.858Z,60.90
2023-11-21T06:26:06.401Z,55.92
2023-11-21T06:28:33.470Z,51.35
2023-11-21T06:31:04.352Z,32.10
2023-11-21T06:33:31.072Z,32.60
2023-11-21T06:35:57.795Z,34.47
2023-11-21T06:38:24.496Z,27.70
2023-11-21T06:40:51.364Z,38.80
2023-11-21T06:43:18.817Z,33.70
2023-11-21T06:45:45.660Z,29.17
2023-11-21T06:48:12.491Z,19.98
2023-11-21T06:50:39.384Z,19.10
2023-11-21T06:53:08.655Z,26.98
2023-11-21T06:55:35.456Z,30.60
2023-11-21T06:58:02.224Z,30.65
2023-11-21T07:00:29.293Z,17.67
2023-11-21T07:02:56.439Z,14.82
2023-11-21T07:05:23.542Z,35.58
2023-11-21T07:07:50.890Z,39.25
2023-11-21T07:10:18.233Z,42.45
2023-11-21T07:12:45.005Z,33.42
2023-11-21T07:15:11.853Z,36.95
2023-11-21T07:17:41.032Z,24.70
2023-11-21T07:20:09.520Z,19.23
2023-11-21T07:22:36.612Z,13.35
2023-11-21T07:25:03.457Z,31.65
2023-11-21T07:27:30.234Z,25.20
2023-11-21T07:29:56.997Z,16.20
2023-11-21T07:32:23.748Z,18.52
2023-11-21T07:34:50.642Z,17.25
2023-11-21T07:37:17.385Z,9.63
2023-11-21T07:39:45.509Z,16.15
2023-11-21T07:42:12.731Z,16.05
2023-11-21T07:44:39.534Z,13.85
2023-11-21T07:47:06.527Z,18.65
2023-11-21T07:49:33.365Z,15.65
2023-11-21T07:52:00.189Z,18.13
2023-11-21T07:54:26.952Z,16.23
2023-11-21T07:56:53.726Z,17.83
2023-11-21T07:59:20.429Z,13.77
2023-11-21T08:01:47.365Z,18.15
2023-11-21T08:04:14.374Z,15.63
2023-11-21T08:06:42.959Z,13.27
2023-11-21T08:09:09.935Z,14.68
2023-11-21T08:11:36.723Z,18.48
2023-11-21T08:14:03.577Z,12.15
2023-11-21T08:16:30.312Z,14.40
2023-11-21T08:18:57.637Z,15.82
2023-11-21T08:21:30.443Z,16.02
2023-11-21T08:23:57.957Z,13.13
2023-11-21T08:26:24.892Z,12.52
2023-11-21T08:28:53.883Z,16.33
2023-11-21T08:31:27.395Z,29.10
2023-11-21T08:33:56.989Z,16.67
2023-11-21T08:36:26.684Z,16.27
2023-11-21T08:38:53.595Z,14.85
2023-11-21T08:41:22.569Z,19.33
2023-11-21T08:43:50.990Z,12.23
2023-11-21T08:46:21.566Z,17.77
2023-11-21T08:48:48.765Z,25.73
2023-11-21T08:51:15.590Z,16.75
2023-11-21T08:53:42.359Z,13.10
2023-11-21T08:56:10.730Z,20.13
2023-11-21T08:58:38.360Z,14.57
2023-11-21T09:01:06.093Z,9.88
2023-11-21T09:03:35.294Z,21.63
2023-11-21T09:06:02.201Z,8.00
2023-11-21T09:08:30.768Z,10.73
2023-11-21T09:13:26.500Z,11.82
2023-11-21T09:15:53.399Z,3.85
2023-11-21T09:18:20.551Z,9.32
2023-11-21T09:20:47.341Z,12.70
2023-11-21T09:23:14.027Z,4.88
2023-11-21T09:25:40.875Z,13.10
2023-11-21T09:28:10.827Z,9.43
2023-11-21T09:30:37.573Z,2.75
2023-11-21T09:33:06.681Z,2.72
2023-11-21T09:35:33.941Z,5.43
2023-11-21T09:38:02.886Z,3.00
2023-11-21T09:40:29.769Z,3.25
2023-11-21T09:42:58.371Z,4.88
2023-11-21T09:45:35.178Z,2.20
2023-11-21T09:48:02.148Z,5.13
2023-11-21T09:50:29.649Z,3.53
2023-11-21T09:53:07.614Z,2.53
2023-11-21T09:55:37.526Z,7.18
2023-11-21T09:58:04.775Z,4.20
2023-11-21T10:00:34.288Z,2.58
2023-11-21T10:03:01.307Z,2.13
2023-11-21T10:05:29.508Z,4.07
2023-11-21T10:07:58.863Z,2.55
2023-11-21T10:10:25.668Z,3.03
2023-11-21T10:12:54.469Z,1.98
2023-11-21T10:15:26.280Z,3.50
2023-11-21T10:17:54.535Z,6.25
2023-11-21T10:20:21.580Z,2.90
2023-11-21T10:22:48.397Z,3.55
2023-11-21T10:25:19.310Z,8.50
2023-11-21T10:27:47.463Z,2.95
2023-11-21T10:30:14.285Z,3.67
2023-11-21T10:32:42.168Z,2.88
2023-11-21T10:35:11.598Z,1.73
2023-11-21T10:37:41.697Z,1.95
2023-11-21T10:40:10.446Z,2.35
2023-11-21T10:42:37.282Z,1.65
2023-11-21T10:45:10.664Z,2.65
2023-11-21T10:47:38.216Z,3.40
2023-11-21T10:50:05.613Z,2.28
2023-11-21T10:52:32.483Z,12.75
2023-11-21T10:55:00.509Z,3.15
2023-11-21T10:57:27.852Z,5.50
2023-11-21T10:59:54.583Z,5.88
2023-11-21T11:02:33.927Z,5.60
2023-11-21T11:05:02.335Z,4.28
2023-11-21T11:07:29.556Z,2.47
2023-11-21T11:09:56.295Z,1.08
2023-11-21T11:12:24.479Z,1.55
2023-11-21T11:14:53.247Z,0.68
2023-11-21T11:17:23.009Z,2.75
2023-11-21T11:19:49.868Z,2.00
2023-11-21T11:22:22.594Z,1.30
2023-11-21T11:25:01.243Z,2.10
2023-11-21T11:27:49.844Z,1.60
2023-11-21T11:30:31.722Z,0.93
2023-11-21T11:33:30.594Z,1.55
2023-11-21T11:36:23.035Z,0.75
2023-11-21T11:38:53.506Z,2.38
2023-11-21T11:41:27.987Z,4.93
2023-11-21T11:43:55.458Z,1.45
2023-11-21T11:46:25.107Z,4.88
2023-11-21T11:49:04.473Z,2.22
2023-11-21T11:51:32.671Z,0.70
2023-11-21T11:53:59.381Z,0.93
2023-11-21T11:56:31.611Z,2.80
2023-11-21T11:58:59.771Z,0.35
2023-11-21T12:01:27.621Z,1.58
2023-11-21T12:04:15.883Z,1.08
2023-11-21T12:06:44.287Z,1.08
2023-11-21T12:09:29.134Z,1.88
2023-11-21T12:11:58.587Z,0.93
2023-11-21T12:14:25.565Z,1.65
2023-11-21T12:16:52.931Z,0.68
2023-11-21T12:19:19.930Z,1.30
2023-11-21T12:21:46.686Z,0.82
2023-11-21T12:24:15.379Z,1.23
2023-11-21T12:26:42.896Z,0.88
2023-11-21T12:29:09.639Z,1.33
2023-11-21T12:31:36.721Z,0.93
2023-11-21T12:34:03.651Z,1.33
2023-11-21T12:36:31.463Z,0.57
2023-11-21T12:38:58.239Z,0.63
2023-11-21T12:41:25.291Z,0.50
2023-11-21T12:43:52.210Z,0.63
2023-11-21T12:46:19.296Z,1.00
2023-11-21T12:48:49.334Z,1.52
2023-11-21T12:51:17.209Z,3.88
2023-11-21T12:53:44.133Z,0.93
2023-11-21T12:56:14.188Z,1.35
2023-11-21T12:58:41.467Z,1.88
2023-11-21T13:01:13.101Z,3.75
2023-11-21T13:03:41.572Z,5.30
2023-11-21T13:06:11.374Z,3.08
2023-11-21T13:08:40.368Z,0.40
2023-11-21T13:11:07.499Z,2.03
2023-11-21T13:13:34.485Z,3.67
2023-11-21T13:16:02.654Z,1.33
2023-11-21T13:18:30.053Z,1.33
2023-11-21T13:20:59.078Z,0.63
2023-11-21T13:23:26.307Z,2.35
2023-11-21T13:25:58.325Z,1.27
2023-11-21T13:28:33.463Z,1.08
2023-11-21T13:31:04.794Z,1.08
2023-11-21T13:33:31.936Z,0.98
2023-11-21T13:35:58.918Z,1.90
2023-11-21T13:38:25.660Z,1.17
2023-11-21T13:40:54.826Z,0.75
2023-11-21T13:43:23.152Z,0.88
2023-11-21T13:45:59.686Z,1.50
2023-11-21T13:48:32.782Z,2.15
2023-11-21T13:51:02.532Z,2.25
2023-11-21T13:53:29.294Z,1.52
2023-11-21T13:55:57.010Z,1.25
2023-11-21T13:58:27.208Z,2.13
2023-11-21T14:01:00.091Z,1.13
2023-11-21T14:03:40.606Z,0.88
2023-11-21T14:06:15.557Z,0.98
2023-11-21T14:08:42.692Z,2.60
2023-11-21T14:11:12.478Z,2.00
2023-11-21T14:13:40.580Z,2.03
2023-11-21T14:16:07.986Z,1.83
2023-11-21T14:18:44.816Z,3.05
2023-11-21T14:21:11.926Z,4.00
2023-11-21T14:23:39.685Z,11.05
2023-11-21T14:26:08.431Z,4.93
2023-11-21T14:28:36.901Z,11.68
2023-11-21T14:31:04.423Z,5.07
2023-11-21T14:33:31.147Z,10.57
2023-11-21T14:35:58.860Z,12.82
2023-11-21T14:38:25.691Z,10.00
2023-11-21T14:40:52.632Z,7.90
2023-11-21T14:43:20.332Z,4.22
2023-11-21T14:45:47.055Z,5.50
2023-11-21T14:48:17.373Z,4.40
2023-11-21T14:50:44.495Z,7.25
2023-11-21T14:53:14.088Z,6.25
2023-11-21T14:55:53.092Z,6.93
2023-11-21T14:58:27.700Z,8.20
2023-11-21T15:03:32.677Z,4.97
2023-11-21T15:06:22.168Z,4.60
2023-11-21T15:09:16.400Z,7.97
2023-11-21T15:11:43.602Z,6.60
2023-11-21T15:14:10.926Z,6.32
2023-11-21T15:16:42.134Z,6.93
2023-11-21T15:19:10.608Z,11.07
2023-11-21T15:21:40.391Z,7.55
2023-11-21T15:24:07.813Z,4.82
2023-11-21T15:26:34.910Z,2.90
2023-11-21T15:29:01.885Z,5.03
2023-11-21T15:31:28.662Z,8.15
2023-11-21T15:33:55.575Z,8.32
2023-11-21T15:36:22.258Z,12.23
2023-11-21T15:38:49.194Z,11.57
2023-11-21T15:41:16.022Z,13.63
2023-11-21T15:43:42.745Z,10.77
2023-11-21T15:46:09.642Z,9.13
2023-11-21T15:48:37.769Z,7.70
2023-11-21T15:51:06.031Z,10.15
2023-11-21T15:53:33.632Z,5.93
2023-11-21T15:56:00.401Z,9.75
2023-11-21T15:58:27.454Z,10.82
2023-11-21T16:00:54.234Z,19.33
2023-11-21T16:03:23.422Z,11.07
2023-11-21T16:05:50.572Z,10.00
2023-11-21T16:08:19.247Z,12.00
2023-11-21T16:10:46.288Z,19.20
2023-11-21T16:13:14.481Z,15.88
2023-11-21T16:15:41.543Z,17.63
2023-11-21T16:18:08.348Z,26.27
2023-11-21T16:20:35.289Z,27.73
2023-11-21T16:23:02.079Z,46.70
2023-11-21T16:25:28.882Z,26.95
2023-11-21T16:27:57.656Z,33.45
2023-11-21T16:30:25.899Z,20.88
2023-11-21T16:32:52.667Z,24.05
2023-11-21T16:35:20.518Z,15.98
2023-11-21T16:37:49.279Z,11.57
2023-11-21T16:40:16.030Z,10.00
2023-11-21T16:42:42.826Z,39.83
2023-11-21T16:45:10.095Z,46.75
2023-11-21T16:47:37.516Z,49.03
2023-11-21T16:50:05.258Z,30.35
2023-11-21T16:52:32.533Z,52.15
2023-11-21T16:54:59.704Z,37.78
2023-11-21T16:57:26.595Z,66.43
2023-11-21T16:59:53.321Z,61.53
2023-11-21T17:02:20.697Z,34.47
2023-11-21T17:04:50.261Z,59.00
2023-11-21T17:07:17.782Z,25.85
2023-11-21T17:09:44.532Z,21.10
2023-11-21T17:12:11.329Z,54.55
2023-11-21T17:14:40.366Z,40.50
2023-11-21T17:17:09.939Z,28.02
2023-11-21T17:19:37.677Z,38.58
2023-11-21T17:22:06.173Z,32.35
2023-11-21T17:24:34.274Z,21.30
2023-11-21T17:27:01.485Z,16.63
2023-11-21T17:29:28.232Z,8.80
2023-11-21T17:31:55.007Z,23.45
2023-11-21T17:34:21.840Z,24.65
2023-11-21T17:36:49.196Z,20.70
2023-11-21T17:39:16.090Z,22.67
2023-11-21T17:41:43.037Z,41.13
2023-11-21T17:44:10.021Z,37.38
2023-11-21T17:46:37.579Z,24.70
2023-11-21T17:49:04.460Z,22.65
2023-11-21T17:51:31.536Z,19.65
2023-11-21T17:54:02.415Z,22.85
2023-11-21T17:56:29.828Z,23.70
2023-11-21T17:58:57.822Z,20.17
2023-11-21T18:01:25.357Z,13.82
2023-11-21T18:03:52.387Z,16.15
2023-11-21T18:06:19.258Z,7.07
2023-11-21T18:08:46.420Z,12.93
2023-11-21T18:11:13.317Z,31.55
2023-11-21T18:13:40.213Z,27.33
2023-11-21T18:16:07.313Z,20.50
2023-11-21T18:18:34.086Z,9.88
2023-11-21T18:21:03.080Z,13.25
2023-11-21T18:23:29.762Z,12.73
2023-11-21T18:25:57.097Z,16.38
2023-11-21T18:28:23.864Z,23.90
2023-11-21T18:30:51.068Z,7.47
2023-11-21T18:33:20.525Z,8.48
2023-11-21T18:35:47.572Z,11.77
2023-11-21T18:38:14.418Z,17.88
2023-11-21T18:40:41.264Z,5.68
2023-11-21T18:43:08.099Z,10.38
2023-11-21T18:45:35.921Z,12.25
2023-11-21T18:48:02.765Z,10.98
2023-11-21T18:50:29.499Z,22.10
2023-11-21T18:52:56.379Z,16.98
2023-11-21T18:55:23.165Z,7.20
2023-11-21T18:57:49.891Z,13.55
2023-11-21T19:00:18.529Z,8.80
2023-11-21T19:05:12.754Z,14.40
2023-11-21T19:07:39.849Z,12.85
2023-11-21T19:10:07.187Z,17.02
2023-11-21T19:12:37.115Z,16.38
2023-11-21T19:15:05.067Z,24.50
2023-11-21T19:17:33.772Z,19.20
2023-11-21T19:20:00.982Z,7.35
2023-11-21T19:22:28.502Z,3.67
2023-11-21T19:24:55.243Z,20.25
2023-11-21T19:27:21.961Z,17.20
2023-11-21T19:29:49.465Z,17.35
2023-11-21T19:32:16.408Z,9.30
2023-11-21T19:34:43.348Z,21.40
2023-11-21T19:37:10.167Z,9.85
2023-11-21T19:39:37.024Z,12.85
2023-11-21T19:42:04.395Z,5.72
2023-11-21T19:44:32.089Z,1.65
2023-11-21T19:47:00.220Z,1.98
2023-11-21T19:49:27.112Z,8.02
2023-11-21T19:51:53.967Z,13.35
2023-11-21T19:54:20.860Z,8.70
2023-11-21T19:56:47.632Z,3.92
2023-11-21T19:59:15.241Z,11.07
2023-11-21T20:01:44.206Z,3.67
2023-11-21T20:04:11.472Z,8.60
2023-11-21T20:06:48.412Z,6.35
2023-11-21T20:09:18.166Z,5.72
2023-11-21T20:11:47.620Z,7.18
2023-11-21T20:14:15.204Z,6.55
2023-11-21T20:16:42.350Z,22.35
2023-11-21T20:19:09.405Z,14.13
2023-11-21T20:21:36.170Z,9.43
2023-11-21T20:24:03.035Z,12.45
2023-11-21T20:26:29.915Z,11.30
2023-11-21T20:28:57.661Z,9.40
2023-11-21T20:31:25.352Z,15.23
2023-11-21T20:33:52.397Z,7.63
2023-11-21T20:36:19.359Z,8.07
2023-11-21T20:38:46.180Z,6.47
2023-11-21T20:41:15.347Z,10.25
2023-11-21T20:43:42.288Z,9.00
2023-11-21T20:46:09.124Z,8.32
2023-11-21T20:48:36.232Z,8.73
2023-11-21T20:51:04.288Z,17.55
2023-11-21T20:53:31.181Z,24.48
2023-11-21T20:56:01.464Z,3.70
2023-11-21T20:58:28.411Z,4.75
2023-11-21T21:00:55.179Z,4.43
2023-11-21T21:03:22.184Z,11.18
2023-11-21T21:05:49.126Z,10.65
2023-11-21T21:08:16.022Z,8.93
2023-11-21T21:10:43.013Z,10.35
2023-11-21T21:13:14.950Z,9.57
2023-11-21T21:15:42.058Z,5.75
2023-11-21T21:18:09.355Z,8.85
2023-11-21T21:20:37.464Z,7.90
2023-11-21T21:23:04.415Z,5.70
2023-11-21T21:25:32.262Z,8.02
2023-11-21T21:28:00.797Z,4.70
2023-11-21T21:30:29.184Z,4.43
2023-11-21T21:32:58.594Z,5.85
2023-11-21T21:35:29.776Z,6.03
2023-11-21T21:37:57.823Z,3.53
2023-11-21T21:40:27.446Z,7.95
2023-11-21T21:42:59.625Z,13.18
2023-11-21T21:45:27.001Z,9.98
2023-11-21T21:47:54.109Z,25.23
2023-11-21T21:50:20.981Z,12.88
2023-11-21T21:52:48.197Z,11.65
2023-11-21T21:55:15.043Z,12.38
2023-11-21T21:57:42.387Z,18.23
2023-11-21T22:00:10.327Z,17.85
2023-11-21T22:02:37.238Z,28.10
2023-11-21T22:05:04.261Z,26.52
2023-11-21T22:07:31.023Z,12.68
2023-11-21T22:09:58.076Z,15.35
2023-11-21T22:12:24.837Z,14.60
2023-11-21T22:14:51.578Z,13.13
2023-11-21T22:17:18.283Z,16.42
2023-11-21T22:19:44.983Z,17.38
2023-11-21T22:22:11.775Z,21.63
2023-11-21T22:24:38.970Z,38.40
2023-11-21T22:27:06.927Z,35.40
2023-11-21T22:29:33.737Z,16.80
2023-11-21T22:32:00.532Z,18.75
2023-11-21T22:34:27.386Z,23.75
2023-11-21T22:36:54.448Z,24.42
2023-11-21T22:39:21.347Z,17.75
2023-11-21T22:41:48.677Z,12.80
2023-11-21T22:44:15.497Z,14.05
2023-11-21T22:46:45.496Z,11.93
2023-11-21T22:49:14.140Z,13.02
2023-11-21T22:54:08.424Z,12.80
2023-11-21T22:56:35.465Z,8.63
2023-11-21T22:59:02.263Z,12.10
2023-11-21T23:01:29.143Z,9.60
2023-11-21T23:03:56.758Z,9.30
2023-11-21T23:06:24.947Z,9.55
2023-11-21T23:08:52.034Z,11.60
2023-11-21T23:11:18.776Z,11.48
2023-11-21T23:13:45.923Z,7.35
2023-11-21T23:16:12.759Z,6.57
2023-11-21T23:18:39.544Z,9.98
2023-11-21T23:21:07.866Z,8.77
2023-11-21T23:23:34.784Z,9.93
2023-11-21T23:26:02.389Z,11.80
2023-11-21T23:28:29.298Z,11.98
2023-11-21T23:30:56.430Z,10.55
2023-11-21T23:33:23.340Z,8.43
2023-11-21T23:35:50.199Z,28.40
2023-11-21T23:38:17.799Z,22.08
2023-11-21T23:40:44.599Z,5.43
2023-11-21T23:43:11.420Z,6.70
2023-11-21T23:45:39.299Z,5.38
2023-11-21T23:48:06.390Z,4.78
2023-11-21T23:50:33.285Z,19.27
2023-11-21T23:53:00.108Z,12.73
2023-11-21T23:55:26.886Z,3.88
2023-11-21T23:57:53.635Z,5.35
